sensor_id;sensor_type;location;lat;lon;timestamp;pressure;altitude;pressure_sealevel;temperature;humidity
42003;BME280;27693;50.506;30.832;2023-02-18T00:00:30;99246.22;;;1.55;95.94
42003;BME280;27693;50.506;30.832;2023-02-18T00:01:33;99235.42;;;1.87;97.99
42003;BME280;27693;50.506;30.832;2023-02-18T00:02:36;99241.41;;;1.86;97.29
42003;BME280;27693;50.506;30.832;2023-02-18T00:03:38;99236.25;;;1.88;97.27
42003;BME280;27693;50.506;30.832;2023-02-18T00:04:42;99245.83;;;1.78;96.60
42003;BME280;27693;50.506;30.832;2023-02-18T00:05:44;99241.60;;;1.75;95.97
42003;BME280;27693;50.506;30.832;2023-02-18T00:06:46;99240.13;;;1.62;95.45
42003;BME280;27693;50.506;30.832;2023-02-18T00:07:49;99237.52;;;1.64;95.35
42003;BME280;27693;50.506;30.832;2023-02-18T00:08:53;99232.75;;;1.43;94.12
42003;BME280;27693;50.506;30.832;2023-02-18T00:09:55;99229.49;;;1.32;93.89
42003;BME280;27693;50.506;30.832;2023-02-18T00:10:57;99223.70;;;1.21;93.74
42003;BME280;27693;50.506;30.832;2023-02-18T00:12:00;99211.08;;;1.08;93.93
42003;BME280;27693;50.506;30.832;2023-02-18T00:13:03;99215.47;;;1.00;94.03
42003;BME280;27693;50.506;30.832;2023-02-18T00:14:10;99212.13;;;0.95;94.36
42003;BME280;27693;50.506;30.832;2023-02-18T00:15:11;99207.02;;;0.95;94.74
42003;BME280;27693;50.506;30.832;2023-02-18T00:16:16;99196.64;;;1.03;95.30
42003;BME280;27693;50.506;30.832;2023-02-18T00:17:18;99199.20;;;1.03;95.12
42003;BME280;27693;50.506;30.832;2023-02-18T00:18:21;99194.08;;;1.03;95.13
42003;BME280;27693;50.506;30.832;2023-02-18T00:19:26;99194.88;;;1.06;95.16
42003;BME280;27693;50.506;30.832;2023-02-18T00:20:30;99191.45;;;1.07;95.27
42003;BME280;27693;50.506;30.832;2023-02-18T00:21:35;99206.85;;;1.04;95.17
42003;BME280;27693;50.506;30.832;2023-02-18T00:22:38;99181.40;;;0.95;95.31
42003;BME280;27693;50.506;30.832;2023-02-18T00:23:41;99188.92;;;1.04;95.69
42003;BME280;27693;50.506;30.832;2023-02-18T00:24:45;99182.17;;;1.00;95.54
42003;BME280;27693;50.506;30.832;2023-02-18T00:25:48;99176.21;;;0.98;95.71
42003;BME280;27693;50.506;30.832;2023-02-18T00:26:51;99168.46;;;1.03;95.87
42003;BME280;27693;50.506;30.832;2023-02-18T00:27:54;99163.37;;;1.01;95.79
42003;BME280;27693;50.506;30.832;2023-02-18T00:28:56;99160.02;;;0.98;95.78
42003;BME280;27693;50.506;30.832;2023-02-18T00:29:59;99159.14;;;0.99;95.93
42003;BME280;27693;50.506;30.832;2023-02-18T00:31:09;99157.41;;;0.99;96.08
42003;BME280;27693;50.506;30.832;2023-02-18T00:32:12;99149.77;;;0.98;96.11
42003;BME280;27693;50.506;30.832;2023-02-18T00:33:15;99147.23;;;0.96;96.13
42003;BME280;27693;50.506;30.832;2023-02-18T00:34:17;99145.54;;;0.95;96.22
42003;BME280;27693;50.506;30.832;2023-02-18T00:35:19;99142.02;;;1.02;96.43
42003;BME280;27693;50.506;30.832;2023-02-18T00:36:23;99136.89;;;1.02;96.46
42003;BME280;27693;50.506;30.832;2023-02-18T00:37:27;99133.43;;;1.03;96.43
42003;BME280;27693;50.506;30.832;2023-02-18T00:38:30;99126.67;;;0.99;96.45
42003;BME280;27693;50.506;30.832;2023-02-18T00:39:32;99127.51;;;1.00;96.65
42003;BME280;27693;50.506;30.832;2023-02-18T00:40:37;99114.73;;;0.98;96.81
42003;BME280;27693;50.506;30.832;2023-02-18T00:41:40;99107.88;;;1.00;96.86
42003;BME280;27693;50.506;30.832;2023-02-18T00:42:45;99111.20;;;1.05;96.96
42003;BME280;27693;50.506;30.832;2023-02-18T00:43:49;99100.88;;;1.10;97.22
42003;BME280;27693;50.506;30.832;2023-02-18T00:44:53;99112.80;;;1.13;97.18
42003;BME280;27693;50.506;30.832;2023-02-18T00:45:56;99105.94;;;1.15;97.08
42003;BME280;27693;50.506;30.832;2023-02-18T00:46:58;99103.30;;;1.19;97.06
42003;BME280;27693;50.506;30.832;2023-02-18T00:48:00;99093.09;;;1.16;96.91
42003;BME280;27693;50.506;30.832;2023-02-18T00:49:04;99088.86;;;1.14;96.92
42003;BME280;27693;50.506;30.832;2023-02-18T00:50:08;99084.72;;;1.06;96.86
42003;BME280;27693;50.506;30.832;2023-02-18T00:51:11;99082.98;;;1.08;97.03
42003;BME280;27693;50.506;30.832;2023-02-18T00:52:14;99082.05;;;1.13;97.27
42003;BME280;27693;50.506;30.832;2023-02-18T00:53:17;99076.92;;;1.13;97.18
42003;BME280;27693;50.506;30.832;2023-02-18T00:54:21;99077.86;;;1.07;97.16
42003;BME280;27693;50.506;30.832;2023-02-18T00:55:24;99075.23;;;1.11;97.36
42003;BME280;27693;50.506;30.832;2023-02-18T00:56:26;99072.73;;;1.08;97.28
42003;BME280;27693;50.506;30.832;2023-02-18T00:57:29;99060.72;;;1.10;97.40
42003;BME280;27693;50.506;30.832;2023-02-18T00:58:33;99068.37;;;1.14;97.57
42003;BME280;27693;50.506;30.832;2023-02-18T00:59:38;99061.59;;;1.11;97.60
42003;BME280;27693;50.506;30.832;2023-02-18T01:00:40;99053.15;;;1.04;97.55
42003;BME280;27693;50.506;30.832;2023-02-18T01:01:43;99047.87;;;1.14;98.05
42003;BME280;27693;50.506;30.832;2023-02-18T01:02:46;99037.47;;;1.21;98.26
42003;BME280;27693;50.506;30.832;2023-02-18T01:03:50;99037.39;;;1.26;98.49
42003;BME280;27693;50.506;30.832;2023-02-18T01:04:53;99035.66;;;1.28;98.51
42003;BME280;27693;50.506;30.832;2023-02-18T01:05:56;99023.71;;;1.27;98.27
42003;BME280;27693;50.506;30.832;2023-02-18T01:07:00;99031.52;;;1.21;98.12
42003;BME280;27693;50.506;30.832;2023-02-18T01:08:04;99028.20;;;1.16;98.15
42003;BME280;27693;50.506;30.832;2023-02-18T01:09:07;99017.95;;;1.16;98.38
42003;BME280;27693;50.506;30.832;2023-02-18T01:10:11;99017.13;;;1.14;98.58
42003;BME280;27693;50.506;30.832;2023-02-18T01:11:14;99013.70;;;1.15;98.68
42003;BME280;27693;50.506;30.832;2023-02-18T01:12:16;99013.70;;;1.15;98.76
42003;BME280;27693;50.506;30.832;2023-02-18T01:13:19;99011.96;;;1.17;98.96
42003;BME280;27693;50.506;30.832;2023-02-18T01:14:22;99004.27;;;1.17;98.84
42003;BME280;27693;50.506;30.832;2023-02-18T01:15:24;99003.37;;;1.18;99.08
42003;BME280;27693;50.506;30.832;2023-02-18T01:16:27;99001.64;;;1.20;99.10
42003;BME280;27693;50.506;30.832;2023-02-18T01:17:30;98988.00;;;1.18;99.22
42003;BME280;27693;50.506;30.832;2023-02-18T01:18:32;98994.70;;;1.25;99.48
42003;BME280;27693;50.506;30.832;2023-02-18T01:19:35;98985.36;;;1.22;99.40
42003;BME280;27693;50.506;30.832;2023-02-18T01:20:39;98985.48;;;1.16;99.38
42003;BME280;27693;50.506;30.832;2023-02-18T01:21:42;98984.64;;;1.16;99.45
42003;BME280;27693;50.506;30.832;2023-02-18T01:22:45;98983.73;;;1.18;99.71
42003;BME280;27693;50.506;30.832;2023-02-18T01:23:47;98981.88;;;1.25;99.83
42003;BME280;27693;50.506;30.832;2023-02-18T01:24:50;98968.28;;;1.23;99.71
42003;BME280;27693;50.506;30.832;2023-02-18T01:25:53;98961.47;;;1.20;99.89
42003;BME280;27693;50.506;30.832;2023-02-18T01:26:57;98958.90;;;1.22;99.87
42003;BME280;27693;50.506;30.832;2023-02-18T01:27:59;98961.47;;;1.20;100.00
42003;BME280;27693;50.506;30.832;2023-02-18T01:29:03;98956.30;;;1.23;100.00
42003;BME280;27693;50.506;30.832;2023-02-18T01:30:08;98956.34;;;1.20;100.00
42003;BME280;27693;50.506;30.832;2023-02-18T01:31:12;98944.44;;;1.19;100.00
42003;BME280;27693;50.506;30.832;2023-02-18T01:32:16;98944.44;;;1.19;100.00
42003;BME280;27693;50.506;30.832;2023-02-18T01:33:19;98937.62;;;1.18;100.00
42003;BME280;27693;50.506;30.832;2023-02-18T01:34:22;98932.53;;;1.17;100.00
42003;BME280;27693;50.506;30.832;2023-02-18T01:35:25;98923.16;;;1.16;100.00
42003;BME280;27693;50.506;30.832;2023-02-18T01:36:29;98918.20;;;1.06;100.00
42003;BME280;27693;50.506;30.832;2023-02-18T01:37:32;98918.08;;;1.13;100.00
42003;BME280;27693;50.506;30.832;2023-02-18T01:38:36;98924.03;;;1.15;100.00
42003;BME280;27693;50.506;30.832;2023-02-18T01:39:39;98917.95;;;1.19;100.00
42003;BME280;27693;50.506;30.832;2023-02-18T01:40:47;98912.83;;;1.19;100.00
42003;BME280;27693;50.506;30.832;2023-02-18T01:41:52;98899.28;;;1.14;100.00
42003;BME280;27693;50.506;30.832;2023-02-18T01:42:55;98899.28;;;1.14;100.00
42003;BME280;27693;50.506;30.832;2023-02-18T01:44:12;98901.80;;;1.15;100.00
42003;BME280;27693;50.506;30.832;2023-02-18T01:46:40;98892.33;;;1.19;100.00
42003;BME280;27693;50.506;30.832;2023-02-18T01:47:44;98882.86;;;1.22;100.00
42003;BME280;27693;50.506;30.832;2023-02-18T01:48:59;98882.95;;;1.18;100.00
42003;BME280;27693;50.506;30.832;2023-02-18T01:50:03;98875.34;;;1.15;100.00
42003;BME280;27693;50.506;30.832;2023-02-18T01:52:24;98855.67;;;1.17;100.00
42003;BME280;27693;50.506;30.832;2023-02-18T01:53:26;98873.61;;;1.17;100.00
42003;BME280;27693;50.506;30.832;2023-02-18T01:54:32;98868.48;;;1.17;100.00
42003;BME280;27693;50.506;30.832;2023-02-18T01:55:36;98863.27;;;1.20;100.00
42003;BME280;27693;50.506;30.832;2023-02-18T01:56:56;98858.92;;;1.23;100.00
42003;BME280;27693;50.506;30.832;2023-02-18T01:57:59;98861.53;;;1.22;100.00
42003;BME280;27693;50.506;30.832;2023-02-18T01:59:06;98853.02;;;1.20;100.00
42003;BME280;27693;50.506;30.832;2023-02-18T02:00:17;98852.97;;;1.23;100.00
42003;BME280;27693;50.506;30.832;2023-02-18T02:01:25;98843.55;;;1.23;100.00
42003;BME280;27693;50.506;30.832;2023-02-18T02:02:31;98841.08;;;1.19;100.00
42003;BME280;27693;50.506;30.832;2023-02-18T02:03:33;98832.61;;;1.17;100.00
42003;BME280;27693;50.506;30.832;2023-02-18T02:04:35;98834.22;;;1.21;100.00
42003;BME280;27693;50.506;30.832;2023-02-18T02:05:39;98832.47;;;1.23;100.00
42003;BME280;27693;50.506;30.832;2023-02-18T02:06:41;98828.18;;;1.23;100.00
42003;BME280;27693;50.506;30.832;2023-02-18T02:07:45;98822.22;;;1.23;100.00
42003;BME280;27693;50.506;30.832;2023-02-18T02:08:50;98821.27;;;1.27;100.00
42003;BME280;27693;50.506;30.832;2023-02-18T02:09:56;98821.45;;;1.18;100.00
42003;BME280;27693;50.506;30.832;2023-02-18T02:14:10;98810.20;;;1.25;100.00
42003;BME280;27693;50.506;30.832;2023-02-18T02:15:37;98808.51;;;1.24;100.00
42003;BME280;27693;50.506;30.832;2023-02-18T02:16:47;98803.52;;;1.18;100.00
42003;BME280;27693;50.506;30.832;2023-02-18T02:17:57;98804.53;;;1.10;100.00
42003;BME280;27693;50.506;30.832;2023-02-18T02:19:03;98802.06;;;1.07;100.00
42003;BME280;27693;50.506;30.832;2023-02-18T02:32:44;98769.48;;;1.13;100.00
42003;BME280;27693;50.506;30.832;2023-02-18T02:35:25;98759.23;;;1.13;100.00
42003;BME280;27693;50.506;30.832;2023-02-18T02:37:53;98758.41;;;1.12;100.00
42003;BME280;27693;50.506;30.832;2023-02-18T02:47:10;98713.27;;;1.06;100.00
42003;BME280;27693;50.506;30.832;2023-02-18T02:50:51;98712.21;;;1.15;100.00
42003;BME280;27693;50.506;30.832;2023-02-18T02:51:59;98711.38;;;1.15;100.00
42003;BME280;27693;50.506;30.832;2023-02-18T02:53:05;98699.39;;;1.17;100.00
42003;BME280;27693;50.506;30.832;2023-02-18T02:55:22;98702.00;;;1.14;100.00
42003;BME280;27693;50.506;30.832;2023-02-18T02:56:25;98705.38;;;1.16;100.00
42003;BME280;27693;50.506;30.832;2023-02-18T02:58:39;98701.91;;;1.18;100.00
42003;BME280;27693;50.506;30.832;2023-02-18T02:59:46;98695.19;;;1.13;100.00
42003;BME280;27693;50.506;30.832;2023-02-18T03:01:02;98703.75;;;1.11;100.00
42003;BME280;27693;50.506;30.832;2023-02-18T03:02:57;98695.92;;;1.18;100.00
42003;BME280;27693;50.506;30.832;2023-02-18T03:03:36;98696.06;;;1.11;100.00
42003;BME280;27693;50.506;30.832;2023-02-18T03:04:53;98696.06;;;1.11;100.00
42003;BME280;27693;50.506;30.832;2023-02-18T03:08:45;98686.59;;;1.15;100.00
42003;BME280;27693;50.506;30.832;2023-02-18T03:11:22;98687.51;;;1.13;100.00
42003;BME280;27693;50.506;30.832;2023-02-18T03:16:36;98661.27;;;1.37;100.00
42003;BME280;27693;50.506;30.832;2023-02-18T03:17:52;98659.89;;;1.24;100.00
42003;BME280;27693;50.506;30.832;2023-02-18T03:18:59;98657.42;;;1.21;100.00
42003;BME280;27693;50.506;30.832;2023-02-18T03:21:23;98654.05;;;1.19;100.00
42003;BME280;27693;50.506;30.832;2023-02-18T03:22:28;98657.38;;;1.22;100.00
42003;BME280;27693;50.506;30.832;2023-02-18T03:23:36;98643.58;;;1.28;100.00
42003;BME280;27693;50.506;30.832;2023-02-18T03:24:45;98644.51;;;1.25;100.00
42003;BME280;27693;50.506;30.832;2023-02-18T03:25:50;98643.76;;;1.20;100.00
42003;BME280;27693;50.506;30.832;2023-02-18T03:27:00;98641.17;;;1.22;100.00
42003;BME280;27693;50.506;30.832;2023-02-18T03:28:11;98637.64;;;1.26;100.00
42003;BME280;27693;50.506;30.832;2023-02-18T03:29:16;98631.64;;;1.27;100.00
42003;BME280;27693;50.506;30.832;2023-02-18T03:30:25;98636.82;;;1.25;100.00
42003;BME280;27693;50.506;30.832;2023-02-18T03:31:30;98637.70;;;1.24;100.00
42003;BME280;27693;50.506;30.832;2023-02-18T03:32:36;98628.25;;;1.26;100.00
42003;BME280;27693;50.506;30.832;2023-02-18T03:33:42;98629.78;;;1.34;100.00
42003;BME280;27693;50.506;30.832;2023-02-18T03:34:48;98633.94;;;1.38;100.00
42003;BME280;27693;50.506;30.832;2023-02-18T03:35:52;98628.00;;;1.36;100.00
42003;BME280;27693;50.506;30.832;2023-02-18T03:36:57;98628.77;;;1.39;100.00
42003;BME280;27693;50.506;30.832;2023-02-18T03:38:06;98624.66;;;1.34;100.00
42003;BME280;27693;50.506;30.832;2023-02-18T03:39:17;98622.11;;;1.32;100.00
42003;BME280;27693;50.506;30.832;2023-02-18T03:40:17;98618.67;;;1.33;100.00
42003;BME280;27693;50.506;30.832;2023-02-18T03:41:21;98622.11;;;1.32;100.00
42003;BME280;27693;50.506;30.832;2023-02-18T03:42:29;98616.21;;;1.30;100.00
42003;BME280;27693;50.506;30.832;2023-02-18T03:43:29;98619.48;;;1.35;100.00
42003;BME280;27693;50.506;30.832;2023-02-18T03:44:31;98608.97;;;1.44;100.00
42003;BME280;27693;50.506;30.832;2023-02-18T03:45:33;98612.46;;;1.42;100.00
42003;BME280;27693;50.506;30.832;2023-02-18T03:46:38;98609.95;;;1.40;100.00
42003;BME280;27693;50.506;30.832;2023-02-18T03:47:41;98609.95;;;1.40;100.00
42003;BME280;27693;50.506;30.832;2023-02-18T03:48:43;98609.95;;;1.40;100.00
42003;BME280;27693;50.506;30.832;2023-02-18T03:49:45;98604.82;;;1.40;100.00
42003;BME280;27693;50.506;30.832;2023-02-18T03:50:48;98598.72;;;1.44;100.00
42003;BME280;27693;50.506;30.832;2023-02-18T03:51:50;98597.67;;;1.52;100.00
42003;BME280;27693;50.506;30.832;2023-02-18T03:52:53;98587.19;;;1.61;100.00
42003;BME280;27693;50.506;30.832;2023-02-18T03:53:55;98594.99;;;1.56;100.00
42003;BME280;27693;50.506;30.832;2023-02-18T03:54:57;98589.21;;;1.50;100.00
42003;BME280;27693;50.506;30.832;2023-02-18T03:56:01;98577.09;;;1.55;100.00
42003;BME280;27693;50.506;30.832;2023-02-18T03:57:03;98578.69;;;1.59;100.00
42003;BME280;27693;50.506;30.832;2023-02-18T03:58:05;98568.25;;;1.65;100.00
42003;BME280;27693;50.506;30.832;2023-02-18T03:59:08;98572.44;;;1.69;100.00
42003;BME280;27693;50.506;30.832;2023-02-18T04:00:11;98576.75;;;1.67;100.00
42003;BME280;27693;50.506;30.832;2023-02-18T04:01:20;98569.06;;;1.67;100.00
42003;BME280;27693;50.506;30.832;2023-02-18T04:02:23;98562.47;;;1.58;100.00
42003;BME280;27693;50.506;30.832;2023-02-18T04:03:26;98549.70;;;1.57;100.00
42003;BME280;27693;50.506;30.832;2023-02-18T04:04:28;98550.70;;;1.51;100.00
42003;BME280;27693;50.506;30.832;2023-02-18T04:05:31;98555.54;;;1.62;100.00
42003;BME280;27693;50.506;30.832;2023-02-18T04:06:33;98549.43;;;1.66;100.00
42003;BME280;27693;50.506;30.832;2023-02-18T04:07:35;98544.30;;;1.66;100.00
42003;BME280;27693;50.506;30.832;2023-02-18T04:08:38;98537.34;;;1.71;100.00
42003;BME280;27693;50.506;30.832;2023-02-18T04:09:40;98542.47;;;1.71;100.00
42003;BME280;27693;50.506;30.832;2023-02-18T04:10:43;98528.16;;;1.63;100.00
42003;BME280;27693;50.506;30.832;2023-02-18T04:11:46;98532.54;;;1.59;100.00
42003;BME280;27693;50.506;30.832;2023-02-18T04:12:48;98535.08;;;1.61;100.00
42003;BME280;27693;50.506;30.832;2023-02-18T04:13:51;98534.15;;;1.63;100.00
42003;BME280;27693;50.506;30.832;2023-02-18T04:14:54;98532.29;;;1.68;100.00
42003;BME280;27693;50.506;30.832;2023-02-18T04:15:56;98534.22;;;1.60;100.00
42003;BME280;27693;50.506;30.832;2023-02-18T04:16:59;98522.08;;;1.67;100.00
42003;BME280;27693;50.506;30.832;2023-02-18T04:18:02;98526.98;;;1.74;100.00
42003;BME280;27693;50.506;30.832;2023-02-18T04:19:04;98521.77;;;1.78;100.00
42003;BME280;27693;50.506;30.832;2023-02-18T04:20:08;98528.66;;;1.75;100.00
42003;BME280;27693;50.506;30.832;2023-02-18T04:21:11;98518.66;;;1.66;100.00
42003;BME280;27693;50.506;30.832;2023-02-18T04:22:13;98513.41;;;1.71;100.00
42003;BME280;27693;50.506;30.832;2023-02-18T04:23:16;98518.72;;;1.65;100.00
42003;BME280;27693;50.506;30.832;2023-02-18T04:24:18;98529.65;;;1.71;100.00
42003;BME280;27693;50.506;30.832;2023-02-18T04:25:21;98518.79;;;1.62;100.00
42003;BME280;27693;50.506;30.832;2023-02-18T04:26:23;98516.33;;;1.58;100.00
42003;BME280;27693;50.506;30.832;2023-02-18T04:27:26;98505.95;;;1.63;100.00
42003;BME280;27693;50.506;30.832;2023-02-18T04:28:28;98518.77;;;1.63;100.00
42003;BME280;27693;50.506;30.832;2023-02-18T04:29:30;98513.02;;;1.55;100.00
42003;BME280;27693;50.506;30.832;2023-02-18T04:30:33;98501.94;;;1.54;100.00
42003;BME280;27693;50.506;30.832;2023-02-18T04:31:35;98494.24;;;1.54;100.00
42003;BME280;27693;50.506;30.832;2023-02-18T04:32:38;98489.94;;;1.55;100.00
42003;BME280;27693;50.506;30.832;2023-02-18T04:33:40;98491.52;;;1.59;100.00
42003;BME280;27693;50.506;30.832;2023-02-18T04:34:42;98496.57;;;1.62;100.00
42003;BME280;27693;50.506;30.832;2023-02-18T04:35:45;98497.38;;;1.64;100.00
42003;BME280;27693;50.506;30.832;2023-02-18T04:36:47;98482.88;;;1.63;100.00
42003;BME280;27693;50.506;30.832;2023-02-18T04:37:50;98481.94;;;1.66;100.00
42003;BME280;27693;50.506;30.832;2023-02-18T04:38:52;98470.13;;;1.60;100.00
42003;BME280;27693;50.506;30.832;2023-02-18T04:39:55;98469.25;;;1.61;100.00
42003;BME280;27693;50.506;30.832;2023-02-18T04:40:58;98469.17;;;1.64;100.00
42003;BME280;27693;50.506;30.832;2023-02-18T04:42:01;98472.33;;;1.72;100.00
42003;BME280;27693;50.506;30.832;2023-02-18T04:43:05;98470.56;;;1.74;100.00
42003;BME280;27693;50.506;30.832;2023-02-18T04:44:08;98462.07;;;1.72;100.00
42003;BME280;27693;50.506;30.832;2023-02-18T04:45:10;98463.67;;;1.77;100.00
42003;BME280;27693;50.506;30.832;2023-02-18T04:46:13;98463.73;;;1.75;100.00
42003;BME280;27693;50.506;30.832;2023-02-18T04:47:15;98453.87;;;1.61;100.00
42003;BME280;27693;50.506;30.832;2023-02-18T04:48:18;98452.94;;;1.64;100.00
42003;BME280;27693;50.506;30.832;2023-02-18T04:49:21;98446.18;;;1.61;100.00
42003;BME280;27693;50.506;30.832;2023-02-18T04:50:24;98453.69;;;1.67;100.00
42003;BME280;27693;50.506;30.832;2023-02-18T04:51:26;98451.23;;;1.64;100.00
42003;BME280;27693;50.506;30.832;2023-02-18T04:52:29;98452.11;;;1.63;100.00
42003;BME280;27693;50.506;30.832;2023-02-18T04:53:32;98463.43;;;1.56;100.00
42003;BME280;27693;50.506;30.832;2023-02-18T04:54:34;98454.80;;;1.58;100.00
42003;BME280;27693;50.506;30.832;2023-02-18T04:55:37;98446.42;;;1.53;100.00
42003;BME280;27693;50.506;30.832;2023-02-18T04:56:40;98443.69;;;1.58;100.00
42003;BME280;27693;50.506;30.832;2023-02-18T04:57:42;98450.50;;;1.59;100.00
42003;BME280;27693;50.506;30.832;2023-02-18T04:58:45;98443.69;;;1.58;100.00
42003;BME280;27693;50.506;30.832;2023-02-18T04:59:47;98438.48;;;1.61;100.00
42003;BME280;27693;50.506;30.832;2023-02-18T05:00:50;98439.37;;;1.60;100.00
42003;BME280;27693;50.506;30.832;2023-02-18T05:01:54;98429.99;;;1.59;100.00
42003;BME280;27693;50.506;30.832;2023-02-18T05:02:56;98429.97;;;1.61;100.00
42003;BME280;27693;50.506;30.832;2023-02-18T05:03:59;98424.68;;;1.65;100.00
42003;BME280;27693;50.506;30.832;2023-02-18T05:05:02;98425.48;;;1.67;100.00
42003;BME280;27693;50.506;30.832;2023-02-18T05:06:05;98431.59;;;1.63;100.00
42003;BME280;27693;50.506;30.832;2023-02-18T05:07:08;98423.80;;;1.66;100.00
42003;BME280;27693;50.506;30.832;2023-02-18T05:08:11;98414.42;;;1.65;100.00
42003;BME280;27693;50.506;30.832;2023-02-18T05:09:14;98416.41;;;1.57;100.00
42003;BME280;27693;50.506;30.832;2023-02-18T05:10:18;98410.16;;;1.66;100.00
42003;BME280;27693;50.506;30.832;2023-02-18T05:11:20;98403.02;;;1.75;100.00
42003;BME280;27693;50.506;30.832;2023-02-18T05:12:23;98407.95;;;1.82;100.00
42003;BME280;27693;50.506;30.832;2023-02-18T05:13:25;98417.27;;;1.84;100.00
42003;BME280;27693;50.506;30.832;2023-02-18T05:14:28;98422.31;;;1.87;100.00
42003;BME280;27693;50.506;30.832;2023-02-18T05:15:30;98408.83;;;1.81;100.00
42003;BME280;27693;50.506;30.832;2023-02-18T05:16:32;98407.40;;;1.72;100.00
42003;BME280;27693;50.506;30.832;2023-02-18T05:17:35;98417.73;;;1.69;100.00
42003;BME280;27693;50.506;30.832;2023-02-18T05:18:38;98413.73;;;1.60;100.00
42003;BME280;27693;50.506;30.832;2023-02-18T05:19:40;98393.89;;;1.67;100.00
42003;BME280;27693;50.506;30.832;2023-02-18T05:20:43;98397.97;;;1.72;100.00
42003;BME280;27693;50.506;30.832;2023-02-18T05:21:46;98395.32;;;1.75;100.00
42003;BME280;27693;50.506;30.832;2023-02-18T05:22:48;98397.77;;;1.79;100.00
42003;BME280;27693;50.506;30.832;2023-02-18T05:23:50;98401.20;;;1.79;100.00
42003;BME280;27693;50.506;30.832;2023-02-18T05:24:52;98393.75;;;1.71;100.00
42003;BME280;27693;50.506;30.832;2023-02-18T05:25:55;98392.95;;;1.69;100.00
42003;BME280;27693;50.506;30.832;2023-02-18T05:26:58;98399.16;;;1.62;100.00
42003;BME280;27693;50.506;30.832;2023-02-18T05:28:00;98392.15;;;1.67;100.00
42003;BME280;27693;50.506;30.832;2023-02-18T05:29:04;98393.03;;;1.66;100.00
42003;BME280;27693;50.506;30.832;2023-02-18T05:30:07;98379.77;;;1.53;100.00
42003;BME280;27693;50.506;30.832;2023-02-18T05:31:10;98379.77;;;1.53;100.00
42003;BME280;27693;50.506;30.832;2023-02-18T05:32:12;98382.09;;;1.61;100.00
42003;BME280;27693;50.506;30.832;2023-02-18T05:33:15;98370.76;;;1.68;100.00
42003;BME280;27693;50.506;30.832;2023-02-18T05:34:17;98376.69;;;1.70;100.00
42003;BME280;27693;50.506;30.832;2023-02-18T05:35:20;98374.20;;;1.67;100.00
42003;BME280;27693;50.506;30.832;2023-02-18T05:36:23;98365.62;;;1.68;100.00
42003;BME280;27693;50.506;30.832;2023-02-18T05:37:26;98373.32;;;1.68;100.00
42003;BME280;27693;50.506;30.832;2023-02-18T05:38:28;98373.12;;;1.74;100.00
42003;BME280;27693;50.506;30.832;2023-02-18T05:39:30;98367.91;;;1.78;100.00
42003;BME280;27693;50.506;30.832;2023-02-18T05:40:33;98358.48;;;1.78;100.00
42003;BME280;27693;50.506;30.832;2023-02-18T05:41:35;98360.98;;;1.80;100.00
42003;BME280;27693;50.506;30.832;2023-02-18T05:42:37;98360.17;;;1.79;100.00
42003;BME280;27693;50.506;30.832;2023-02-18T05:43:40;98354.98;;;1.81;100.00
42003;BME280;27693;50.506;30.832;2023-02-18T05:45:01;98355.84;;;1.81;100.00
42003;BME280;27693;50.506;30.832;2023-02-18T05:46:03;98347.28;;;1.81;100.00
42003;BME280;27693;50.506;30.832;2023-02-18T05:47:10;98345.31;;;1.89;100.00
42003;BME280;27693;50.506;30.832;2023-02-18T05:48:13;98359.08;;;1.86;100.00
42003;BME280;27693;50.506;30.832;2023-02-18T05:49:15;98354.30;;;1.75;100.00
42003;BME280;27693;50.506;30.832;2023-02-18T05:50:18;98359.31;;;1.79;100.00
42003;BME280;27693;50.506;30.832;2023-02-18T05:51:21;98350.11;;;1.73;100.00
42003;BME280;27693;50.506;30.832;2023-02-18T05:52:23;98336.43;;;1.72;100.00
42003;BME280;27693;50.506;30.832;2023-02-18T05:53:25;98334.66;;;1.74;100.00
42003;BME280;27693;50.506;30.832;2023-02-18T05:54:28;98338.09;;;1.75;100.00
42003;BME280;27693;50.506;30.832;2023-02-18T05:55:30;98344.04;;;1.75;100.00
42003;BME280;27693;50.506;30.832;2023-02-18T05:56:35;98333.78;;;1.75;100.00
42003;BME280;27693;50.506;30.832;2023-02-18T05:57:37;98329.53;;;1.74;100.00
42003;BME280;27693;50.506;30.832;2023-02-18T05:58:40;98326.77;;;1.81;100.00
42003;BME280;27693;50.506;30.832;2023-02-18T05:59:42;98327.56;;;1.83;100.00
42003;BME280;27693;50.506;30.832;2023-02-18T06:00:44;98330.13;;;1.83;100.00
42003;BME280;27693;50.506;30.832;2023-02-18T06:01:47;98322.38;;;1.84;100.00
42003;BME280;27693;50.506;30.832;2023-02-18T06:02:50;98324.71;;;1.92;100.00
42003;BME280;27693;50.506;30.832;2023-02-18T06:03:52;98313.59;;;1.91;100.00
42003;BME280;27693;50.506;30.832;2023-02-18T06:04:57;98312.72;;;1.93;100.00
42003;BME280;27693;50.506;30.832;2023-02-18T06:06:01;98314.25;;;1.98;100.00
42003;BME280;27693;50.506;30.832;2023-02-18T06:07:03;98309.20;;;1.95;100.00
42003;BME280;27693;50.506;30.832;2023-02-18T06:08:06;98309.41;;;1.89;100.00
42003;BME280;27693;50.506;30.832;2023-02-18T06:09:09;98311.15;;;1.88;100.00
42003;BME280;27693;50.506;30.832;2023-02-18T06:10:12;98316.22;;;1.90;100.00
42003;BME280;27693;50.506;30.832;2023-02-18T06:11:14;98324.80;;;1.89;100.00
42003;BME280;27693;50.506;30.832;2023-02-18T06:12:17;98317.05;;;1.90;100.00
42003;BME280;27693;50.506;30.832;2023-02-18T06:13:19;98305.02;;;1.93;100.00
42003;BME280;27693;50.506;30.832;2023-02-18T06:14:22;98309.14;;;1.97;100.00
42003;BME280;27693;50.506;30.832;2023-02-18T06:15:25;98311.50;;;2.03;100.00
42003;BME280;27693;50.506;30.832;2023-02-18T06:16:28;98299.32;;;2.10;100.00
42003;BME280;27693;50.506;30.832;2023-02-18T06:17:30;98304.66;;;2.03;100.00
42003;BME280;27693;50.506;30.832;2023-02-18T06:18:33;98311.56;;;2.01;100.00
42003;BME280;27693;50.506;30.832;2023-02-18T06:19:36;98295.28;;;2.02;100.00